KL   EN   DA


ASIAQ
Weather Now GREENLAND SURVEY
Sorting:
Along the coast
Alphabetical
Location Updated [WGT/WGST] Temperature [°C] Wind [m/s] Air pressure [hPa] Relative humidity [%] Precipitation [mm]
PresentWind chillSpeedMax
Qaanaaq27.10 22:00-3,6n/a0,4 ⇓1,61005920,1
Kitsissut27.10 22:00-2,4-11,112,9 ⇖16,5100489n/a
Kitsissorsuit27.10 22:00-2,7-8,04,6 ⇖6,2100583n/a
Upernavik27.10 22:00-5,0-9,12,6 ⇐3,0994730,0
Qaarsut27.10 22:00-7,2-11,92,8 ⇑4,0999450,0
Nuussuaq27.10 22:00-4,2-8,63,1 ⇐4,1100759n/a
Qeqertarsuaq27.10 22:00-4,5-8,93,1 ⇘4,91009830,0
Ilulissat27.10 22:00-10,0-14,32,1 ⇐3,01006630,0
Qasigiannguit27.10 22:00-9,6n/a1,0 ⇓2,41007700,1
Aasiaat27.10 22:00-6,3-10,22,3 ⇐2,81007680,0
Attu27.10 22:00-2,5-6,63,1 ⇐4,1100886n/a
Kangerlussuaq27.10 22:00-12,8-19,93,9 ⇙5,0100479n/a
Sisimiut27.10 22:00-3,9-6,71,8 ⇐2,01009790,0
Maniitsoq27.10 22:00n/an/a0,6 ⇘1,21004n/an/a
Sioralik27.10 22:000,5-4,14,6 ⇘5,7100670n/a
Kapisillit27.10 22:00-4,3n/a0,9 ⇙1,9999730,0
Nuuk Airport27.10 22:00-1,6-4,62,2 ⇙3,1996770,0
Nuuk Skibakke/Sisorarfiit27.10 22:00-2,3-5,72,5 ⇐4,096450n/a
Nuuk City27.10 22:00-1,2-5,03,0 ⇓4,4997820,0
Ukiivik27.10 22:000,7-6,09,8 ⇘11,3100272n/a
Paamiut27.10 22:00-0,3-6,06,4 ⇘7,81000760,0
Narsarsuaq27.10 22:00-2,1n/a0,0 ⇓0,4998660,0
Narsaq27.10 22:00-0,8n/a0,6 ⇑1,499779n/a
Nunarsuit27.10 22:000,9n/an/an/a99987n/a
Qaqortoq27.10 22:000,4n/a0,6 ⇙2,1999700,0
Nanortalik27.10 22:000,2-3,33,1 ⇓4,41000840,0
Angisoq27.10 22:000,7-4,96,7 ⇒8,299997n/a
Prins Christian Sund27.10 22:002,2n/a0,5 ⇘0,598967n/a
Ikermit27.10 22:00-1,8-8,78,2 ⇘11,399155n/a
Kulusuk27.10 22:000,1n/a0,5 ⇗1,5996650,0
Tasiilaq27.10 22:00-1,1-4,52,7 ⇒3,6994670,0
Aputiteeq27.10 22:00-1,4-6,14,1 ⇘4,699859n/a
Ittoqqortoormiit27.10 22:00-1,4-10,315,0 ⇙18,0992720,1
Nerlerit Inaat27.10 22:00-2,8-9,26,3 ⇘n/a100261n/a
Daneborg27.10 22:00-8,7-15,14,1 ⇘5,7100369n/a
Danmarkshavn27.10 22:00-10,3-17,04,1 ⇘6,3100264n/a
Henrik Krøyer Holme27.10 22:00-17,4-26,34,6 ⇙5,7100179n/a
Station Nord27.10 22:00-21,9-26,71,5 ⇗2,1100080n/a
Kap Morris Jesup27.10 22:00-21,8-28,12,1 ⇒4,1100379n/a

Advanced version
Data source - Operated by - Disclaimer